createdAt,value
2022-12-28T00:03:33.928Z,5.15
2022-12-28T00:08:35.672Z,5.11
2022-12-28T00:13:37.556Z,5.08
2022-12-28T00:18:39.104Z,5.04
2022-12-28T00:23:40.610Z,5.02
2022-12-28T00:28:42.164Z,5.00
2022-12-28T00:33:44.341Z,4.98
2022-12-28T00:38:47.336Z,4.97
2022-12-28T00:43:48.988Z,4.97
2022-12-28T00:48:50.545Z,4.94
2022-12-28T00:53:52.112Z,4.94
2022-12-28T00:58:59.166Z,4.93
2022-12-28T01:04:00.914Z,4.91
2022-12-28T01:09:02.629Z,4.91
2022-12-28T01:14:04.307Z,4.90
2022-12-28T01:19:07.390Z,4.90
2022-12-28T01:24:10.364Z,4.90
2022-12-28T01:29:11.899Z,4.90
2022-12-28T01:34:13.455Z,4.91
2022-12-28T01:39:14.953Z,4.91
2022-12-28T01:44:16.443Z,4.93
2022-12-28T01:49:37.031Z,4.93
2022-12-28T01:54:51.997Z,4.92
2022-12-28T02:00:06.164Z,4.91
2022-12-28T02:05:14.837Z,4.90
2022-12-28T02:10:41.664Z,4.89
2022-12-28T02:15:39.345Z,4.85
2022-12-28T02:20:55.545Z,4.84
2022-12-28T02:26:33.137Z,4.79
2022-12-28T02:31:41.056Z,4.78
2022-12-28T02:36:49.766Z,4.79
2022-12-28T02:41:52.167Z,4.78
2022-12-28T02:47:12.431Z,4.76
2022-12-28T02:52:23.426Z,4.74
2022-12-28T02:57:24.892Z,4.73
2022-12-28T03:02:34.760Z,4.73
2022-12-28T03:08:00.876Z,4.71
2022-12-28T03:13:06.420Z,4.71
2022-12-28T03:18:34.733Z,4.72
2022-12-28T03:23:59.069Z,4.71
2022-12-28T03:29:23.558Z,4.69
2022-12-28T03:34:25.371Z,4.66
2022-12-28T03:40:01.100Z,4.67
2022-12-28T03:45:45.948Z,4.63
2022-12-28T03:50:50.915Z,4.62
2022-12-28T03:55:53.179Z,4.62
2022-12-28T04:00:55.467Z,4.63
2022-12-28T04:05:57.972Z,4.64
2022-12-28T04:11:01.197Z,4.64
2022-12-28T04:16:08.472Z,4.66
2022-12-28T04:21:13.539Z,4.68
2022-12-28T04:26:18.658Z,4.66
2022-12-28T04:31:22.872Z,4.64
2022-12-28T04:36:31.275Z,4.60
2022-12-28T04:41:35.189Z,4.60
2022-12-28T04:46:36.807Z,4.57
2022-12-28T04:51:38.390Z,4.57
2022-12-28T04:56:40.412Z,4.57
2022-12-28T05:01:42.100Z,4.56
2022-12-28T05:06:43.729Z,4.55
2022-12-28T05:11:45.260Z,4.55
2022-12-28T05:16:50.982Z,4.56
2022-12-28T05:21:52.473Z,4.53
2022-12-28T05:26:54.024Z,4.55
2022-12-28T05:31:55.698Z,4.56
2022-12-28T05:36:57.261Z,4.60
2022-12-28T05:42:00.796Z,4.59
2022-12-28T05:47:02.425Z,4.61
2022-12-28T05:52:04.051Z,4.62
2022-12-28T05:57:05.568Z,4.63
2022-12-28T06:02:07.165Z,4.64
2022-12-28T06:07:08.748Z,4.63
2022-12-28T06:12:10.227Z,4.64
2022-12-28T06:17:11.745Z,4.68
2022-12-28T06:22:13.223Z,4.69
2022-12-28T06:27:14.767Z,4.69
2022-12-28T06:32:16.275Z,4.68
2022-12-28T06:37:17.748Z,4.71
2022-12-28T06:42:19.282Z,4.71
2022-12-28T06:47:20.846Z,4.73
2022-12-28T06:52:22.362Z,4.75
2022-12-28T06:57:23.867Z,4.75
2022-12-28T07:02:25.493Z,4.75
2022-12-28T07:07:27.133Z,4.77
2022-12-28T07:12:28.604Z,4.81
2022-12-28T07:17:30.110Z,4.85
2022-12-28T07:22:31.608Z,4.91
2022-12-28T07:27:34.887Z,4.94
2022-12-28T07:32:37.911Z,4.95
2022-12-28T07:37:39.465Z,4.99
2022-12-28T07:42:41.024Z,5.02
2022-12-28T07:47:42.622Z,5.04
2022-12-28T07:52:44.455Z,5.05
2022-12-28T07:57:45.963Z,5.11
2022-12-28T08:02:47.543Z,5.17
2022-12-28T08:07:49.110Z,5.20
2022-12-28T08:12:50.634Z,5.19
2022-12-28T08:17:54.171Z,5.15
2022-12-28T08:22:55.724Z,5.12
2022-12-28T08:27:57.456Z,5.16
2022-12-28T08:32:58.965Z,5.13
2022-12-28T08:38:00.609Z,5.17
2022-12-28T08:43:02.595Z,5.19
2022-12-28T08:48:04.670Z,5.19
2022-12-28T08:53:06.294Z,5.27
2022-12-28T08:58:08.042Z,5.32
2022-12-28T09:03:09.830Z,5.36
2022-12-28T09:08:11.478Z,5.40
2022-12-28T09:13:13.021Z,5.46
2022-12-28T09:18:14.615Z,5.48
2022-12-28T09:23:16.389Z,5.52
2022-12-28T09:28:18.133Z,5.53
2022-12-28T09:34:05.514Z,5.55
2022-12-28T09:39:03.108Z,5.55
2022-12-28T09:44:17.079Z,5.57
2022-12-28T09:49:25.598Z,5.62
2022-12-28T09:54:27.151Z,5.62
2022-12-28T09:59:34.552Z,5.61
2022-12-28T10:04:37.784Z,5.60
2022-12-28T10:09:39.475Z,5.57
2022-12-28T10:14:41.545Z,5.58
2022-12-28T10:19:48.141Z,5.61
2022-12-28T10:24:50.335Z,5.65
2022-12-28T10:29:52.832Z,5.67
2022-12-28T10:35:02.179Z,5.75
2022-12-28T10:40:09.762Z,5.82
2022-12-28T10:45:20.277Z,5.91
2022-12-28T10:50:38.003Z,6.01
2022-12-28T10:55:40.023Z,6.09
2022-12-28T11:00:44.569Z,6.17
2022-12-28T11:05:57.322Z,6.29
2022-12-28T11:10:59.217Z,6.37
2022-12-28T11:16:00.920Z,6.50
2022-12-28T11:21:02.504Z,6.64
2022-12-28T11:26:04.254Z,6.74
2022-12-28T11:31:07.962Z,6.87
2022-12-28T11:36:23.096Z,6.94
2022-12-28T11:41:31.799Z,7.05
2022-12-28T11:46:34.868Z,7.21
2022-12-28T11:51:37.133Z,7.30
2022-12-28T11:56:44.684Z,7.41
2022-12-28T12:01:47.190Z,7.49
2022-12-28T12:06:48.738Z,7.54
2022-12-28T12:11:52.942Z,7.56
2022-12-28T12:17:03.534Z,7.57
2022-12-28T12:22:12.729Z,7.58
2022-12-28T12:27:32.360Z,7.64
2022-12-28T12:32:43.466Z,7.67
2022-12-28T12:38:13.433Z,7.78
2022-12-28T12:43:39.387Z,7.82
2022-12-28T12:49:12.587Z,7.86
2022-12-28T12:54:17.875Z,7.93
2022-12-28T12:59:35.049Z,7.93
2022-12-28T13:04:40.148Z,8.05
2022-12-28T13:09:42.587Z,8.13
2022-12-28T13:15:09.107Z,8.21
2022-12-28T13:20:21.483Z,8.28
2022-12-28T13:25:26.573Z,8.32
2022-12-28T13:30:29.327Z,8.43
2022-12-28T13:35:33.230Z,8.53
2022-12-28T13:40:37.706Z,8.60
2022-12-28T13:45:39.577Z,8.62
2022-12-28T13:50:42.398Z,8.63
2022-12-28T13:55:48.791Z,8.66
2022-12-28T14:00:52.621Z,8.73
2022-12-28T14:06:00.169Z,8.79
2022-12-28T14:11:03.056Z,8.83
2022-12-28T14:16:05.598Z,8.88
2022-12-28T14:21:08.274Z,8.97
2022-12-28T14:26:22.428Z,9.04
2022-12-28T14:31:30.093Z,9.11
2022-12-28T14:36:36.172Z,9.14
2022-12-28T14:41:45.548Z,9.16
2022-12-28T14:46:47.315Z,9.10
2022-12-28T14:51:49.052Z,9.07
2022-12-28T14:56:59.468Z,9.04
2022-12-28T15:02:01.224Z,9.01
2022-12-28T15:07:08.254Z,9.03
2022-12-28T15:12:12.974Z,9.06
2022-12-28T15:17:15.800Z,9.09
2022-12-28T15:22:18.610Z,9.11
2022-12-28T15:27:20.279Z,9.15
2022-12-28T15:32:21.843Z,9.17
2022-12-28T15:37:23.475Z,9.16
2022-12-28T15:42:25.021Z,9.15
2022-12-28T15:47:26.568Z,9.12
2022-12-28T15:52:28.100Z,9.09
2022-12-28T15:57:29.800Z,9.02
2022-12-28T16:02:31.663Z,9.00
2022-12-28T16:07:33.358Z,8.95
2022-12-28T16:12:35.220Z,8.88
2022-12-28T16:17:46.900Z,8.83
2022-12-28T16:22:53.725Z,8.78
2022-12-28T16:27:55.274Z,8.71
2022-12-28T16:32:56.820Z,8.66
2022-12-28T16:37:58.313Z,8.61
2022-12-28T16:43:05.089Z,8.57
2022-12-28T16:48:07.957Z,8.51
2022-12-28T16:53:10.189Z,8.46
2022-12-28T16:58:11.713Z,8.42
2022-12-28T17:03:13.391Z,8.37
2022-12-28T17:08:14.917Z,8.34
2022-12-28T17:13:18.342Z,8.29
2022-12-28T17:18:19.868Z,8.25
2022-12-28T17:23:21.427Z,8.22
2022-12-28T17:28:23.703Z,8.22
2022-12-28T17:33:25.219Z,8.20
2022-12-28T17:38:26.789Z,8.20
2022-12-28T17:43:28.472Z,8.16
2022-12-28T17:48:30.408Z,8.14
2022-12-28T17:53:32.345Z,8.11
2022-12-28T17:58:34.417Z,8.09
2022-12-28T18:03:36.560Z,8.08
2022-12-28T18:08:38.301Z,8.04
2022-12-28T18:13:45.723Z,8.01
2022-12-28T18:18:47.377Z,7.96
2022-12-28T18:23:51.520Z,7.91
2022-12-28T18:28:54.539Z,7.86
2022-12-28T18:33:56.191Z,7.82
2022-12-28T18:38:57.707Z,7.78
2022-12-28T18:44:01.572Z,7.74
2022-12-28T18:49:03.137Z,7.70
2022-12-28T18:54:05.607Z,7.67
2022-12-28T18:59:07.137Z,7.62
2022-12-28T19:04:09.961Z,7.57
2022-12-28T19:09:12.491Z,7.56
2022-12-28T19:14:15.393Z,7.54
2022-12-28T19:19:18.007Z,7.52
2022-12-28T19:24:19.883Z,7.49
2022-12-28T19:29:21.464Z,7.45
2022-12-28T19:34:23.044Z,7.43
2022-12-28T19:39:24.620Z,7.40
2022-12-28T19:44:26.287Z,7.37
2022-12-28T19:49:27.812Z,7.37
2022-12-28T19:54:29.566Z,7.37
2022-12-28T19:59:31.135Z,7.32
2022-12-28T20:04:32.793Z,7.33
2022-12-28T20:09:34.905Z,7.33
2022-12-28T20:14:36.490Z,7.35
2022-12-28T20:19:38.546Z,7.35
2022-12-28T20:24:40.085Z,7.36
2022-12-28T20:29:41.629Z,7.38
2022-12-28T20:34:43.203Z,7.36
2022-12-28T20:39:44.765Z,7.38
2022-12-28T20:44:46.323Z,7.35
2022-12-28T20:49:47.879Z,7.35
2022-12-28T20:54:49.447Z,7.33
2022-12-28T20:59:51.071Z,7.33
2022-12-28T21:04:52.630Z,7.31
2022-12-28T21:09:54.234Z,7.30
2022-12-28T21:14:55.751Z,7.28
2022-12-28T21:19:57.317Z,7.26
2022-12-28T21:24:58.867Z,7.25
2022-12-28T21:30:00.403Z,7.24
2022-12-28T21:35:02.053Z,7.25
2022-12-28T21:40:08.953Z,7.23
2022-12-28T21:45:10.990Z,7.21
2022-12-28T21:50:12.605Z,7.15
2022-12-28T21:55:32.935Z,7.14
2022-12-28T22:00:53.184Z,7.13
2022-12-28T22:06:02.629Z,7.07
2022-12-28T22:11:22.834Z,7.04
2022-12-28T22:16:24.787Z,7.00
2022-12-28T22:21:27.665Z,6.95
2022-12-28T22:26:29.227Z,6.89
2022-12-28T22:31:30.948Z,6.86
2022-12-28T22:36:32.981Z,6.85
2022-12-28T22:41:34.582Z,6.82
2022-12-28T22:46:36.299Z,6.82
2022-12-28T22:51:38.182Z,6.78
2022-12-28T22:56:39.701Z,6.72
2022-12-28T23:01:41.607Z,6.67
2022-12-28T23:06:43.280Z,6.65
2022-12-28T23:11:44.909Z,6.61
2022-12-28T23:16:47.162Z,6.60
2022-12-28T23:22:07.450Z,6.60
2022-12-28T23:27:21.678Z,6.57
2022-12-28T23:32:23.480Z,6.55
2022-12-28T23:37:25.223Z,6.53
2022-12-28T23:42:27.057Z,6.54
2022-12-28T23:47:28.663Z,6.54
2022-12-28T23:52:31.034Z,6.57
2022-12-28T23:57:33.022Z,6.56
